createdAt,value
2018-11-28T00:00:32.680Z,12.30
2018-11-28T00:03:03.564Z,12.47
2018-11-28T00:05:32.804Z,12.10
2018-11-28T00:08:01.919Z,12.63
2018-11-28T00:10:31.001Z,12.13
2018-11-28T00:13:00.100Z,12.00
2018-11-28T00:15:29.207Z,11.97
2018-11-28T00:17:58.274Z,12.13
2018-11-28T00:20:27.366Z,12.40
2018-11-28T00:22:56.501Z,11.70
2018-11-28T00:25:25.576Z,12.47
2018-11-28T00:27:54.943Z,11.37
2018-11-28T00:30:24.940Z,11.73
2018-11-28T00:32:54.048Z,12.27
2018-11-28T00:35:24.037Z,11.70
2018-11-28T00:37:53.515Z,11.90
2018-11-28T00:40:23.516Z,11.93
2018-11-28T00:42:52.618Z,12.13
2018-11-28T00:45:23.798Z,12.07
2018-11-28T00:47:52.931Z,11.40
2018-11-28T00:50:25.260Z,12.17
2018-11-28T00:52:54.408Z,13.10
2018-11-28T00:55:23.527Z,12.83
2018-11-28T00:57:52.947Z,12.60
2018-11-28T01:00:24.433Z,14.30
2018-11-28T01:02:53.610Z,14.90
2018-11-28T01:05:22.761Z,15.50
2018-11-28T01:07:52.855Z,13.40
2018-11-28T01:10:22.989Z,14.80
2018-11-28T01:12:52.681Z,16.20
2018-11-28T01:15:22.075Z,15.10
2018-11-28T01:17:51.161Z,15.40
2018-11-28T01:20:21.667Z,15.73
2018-11-28T01:22:51.497Z,15.57
2018-11-28T01:25:21.431Z,15.30
2018-11-28T01:27:50.828Z,14.93
2018-11-28T01:30:24.159Z,14.90
2018-11-28T01:32:53.261Z,13.93
2018-11-28T01:35:22.781Z,15.53
2018-11-28T01:37:51.950Z,14.60
2018-11-28T01:40:22.659Z,15.50
2018-11-28T01:42:51.838Z,15.33
2018-11-28T01:45:22.144Z,16.53
2018-11-28T01:47:51.258Z,15.10
2018-11-28T01:50:21.286Z,14.73
2018-11-28T01:52:50.724Z,14.53
2018-11-28T01:55:21.211Z,15.40
2018-11-28T01:57:50.343Z,16.90
2018-11-28T02:00:21.354Z,15.70
2018-11-28T02:02:51.755Z,15.33
2018-11-28T02:05:20.828Z,16.60
2018-11-28T02:07:50.053Z,16.07
2018-11-28T02:10:19.240Z,15.90
2018-11-28T02:12:48.353Z,15.30
2018-11-28T02:15:18.459Z,14.47
2018-11-28T02:17:47.667Z,15.50
2018-11-28T02:20:17.574Z,13.47
2018-11-28T02:22:46.957Z,14.70
2018-11-28T02:25:17.057Z,14.20
2018-11-28T02:27:46.935Z,14.53
2018-11-28T02:30:16.956Z,15.03
2018-11-28T02:32:47.295Z,14.70
2018-11-28T02:35:16.849Z,14.83
2018-11-28T02:37:45.944Z,15.03
2018-11-28T02:40:17.892Z,14.50
2018-11-28T02:42:47.623Z,14.57
2018-11-28T02:45:17.696Z,14.67
2018-11-28T02:47:46.882Z,15.47
2018-11-28T02:50:15.975Z,14.80
2018-11-28T02:52:45.346Z,14.73
2018-11-28T02:55:15.245Z,14.60
2018-11-28T02:57:45.281Z,15.43
2018-11-28T03:00:18.452Z,17.50
2018-11-28T03:02:47.668Z,15.87
2018-11-28T03:05:16.756Z,14.27
2018-11-28T03:07:45.838Z,15.93
2018-11-28T03:10:17.872Z,15.80
2018-11-28T03:12:47.087Z,13.50
2018-11-28T03:15:20.408Z,14.90
2018-11-28T03:17:49.471Z,13.73
2018-11-28T03:20:18.554Z,14.77
2018-11-28T03:22:47.604Z,14.07
2018-11-28T03:25:16.677Z,15.33
2018-11-28T03:27:45.779Z,14.93
2018-11-28T03:30:15.893Z,14.67
2018-11-28T03:32:44.994Z,14.43
2018-11-28T03:35:15.488Z,13.47
2018-11-28T03:37:44.680Z,14.10
2018-11-28T03:40:13.949Z,14.83
2018-11-28T03:42:43.115Z,16.50
2018-11-28T03:45:14.841Z,14.07
2018-11-28T03:47:44.668Z,14.43
2018-11-28T03:50:15.586Z,13.27
2018-11-28T03:52:44.804Z,12.17
2018-11-28T03:55:14.773Z,14.63
2018-11-28T03:57:46.046Z,15.10
2018-11-28T04:00:17.247Z,12.87
2018-11-28T04:02:46.515Z,13.27
2018-11-28T04:05:16.002Z,14.30
2018-11-28T04:07:45.457Z,13.80
2018-11-28T04:10:15.754Z,13.90
2018-11-28T04:12:45.448Z,13.90
2018-11-28T04:15:18.451Z,13.93
2018-11-28T04:17:47.599Z,13.90
2018-11-28T04:20:18.509Z,14.27
2018-11-28T04:22:47.589Z,14.63
2018-11-28T04:25:20.471Z,13.30
2018-11-28T04:27:49.679Z,13.33
2018-11-28T04:30:25.258Z,14.67
2018-11-28T04:32:55.360Z,13.63
2018-11-28T04:35:24.899Z,12.90
2018-11-28T04:37:53.997Z,14.50
2018-11-28T04:40:23.093Z,12.40
2018-11-28T04:42:52.178Z,13.13
2018-11-28T04:45:22.066Z,14.03
2018-11-28T04:47:52.035Z,16.40
2018-11-28T04:50:21.139Z,13.20
2018-11-28T04:52:50.267Z,14.03
2018-11-28T04:55:20.080Z,14.33
2018-11-28T04:57:49.342Z,14.40
2018-11-28T05:00:24.425Z,14.60
2018-11-28T05:02:54.609Z,15.37
2018-11-28T05:05:23.705Z,15.63
2018-11-28T05:07:53.341Z,16.10
2018-11-28T05:10:23.728Z,15.97
2018-11-28T05:12:53.461Z,16.33
2018-11-28T05:15:23.646Z,18.70
2018-11-28T05:17:53.662Z,17.20
2018-11-28T05:20:27.606Z,16.60
2018-11-28T05:22:56.743Z,17.90
2018-11-28T05:25:28.067Z,18.90
2018-11-28T05:27:56.819Z,17.63
2018-11-28T05:30:28.902Z,17.10
2018-11-28T05:32:58.218Z,17.10
2018-11-28T05:35:28.807Z,17.17
2018-11-28T05:37:57.936Z,16.40
2018-11-28T05:40:27.840Z,16.87
2018-11-28T05:42:57.132Z,19.00
2018-11-28T05:45:26.218Z,18.53
2018-11-28T05:47:55.311Z,16.90
2018-11-28T05:50:24.392Z,17.03
2018-11-28T05:52:53.489Z,16.43
2018-11-28T05:55:23.172Z,15.67
2018-11-28T05:57:52.273Z,17.07
2018-11-28T06:00:24.158Z,16.57
2018-11-28T06:02:53.254Z,16.00
2018-11-28T06:05:22.357Z,17.00
2018-11-28T06:07:51.454Z,17.40
2018-11-28T06:10:20.550Z,18.10
2018-11-28T06:12:49.602Z,16.57
2018-11-28T06:15:18.738Z,17.07
2018-11-28T06:17:47.792Z,16.60
2018-11-28T06:20:16.942Z,18.87
2018-11-28T06:22:46.072Z,17.13
2018-11-28T06:25:16.884Z,16.40
2018-11-28T06:27:45.383Z,16.77
2018-11-28T06:30:18.195Z,15.83
2018-11-28T06:32:51.241Z,16.37
2018-11-28T06:35:16.856Z,16.13
2018-11-28T06:37:46.404Z,16.00
2018-11-28T06:40:16.438Z,16.30
2018-11-28T06:42:46.883Z,16.50
2018-11-28T06:45:20.266Z,18.20
2018-11-28T06:47:49.486Z,17.43
2018-11-28T06:50:19.398Z,18.80
2018-11-28T06:52:49.856Z,18.87
2018-11-28T06:55:20.728Z,16.53
2018-11-28T06:57:49.890Z,17.03
2018-11-28T07:00:20.974Z,16.27
2018-11-28T07:02:51.139Z,16.53
2018-11-28T07:05:20.690Z,17.07
2018-11-28T07:07:49.921Z,17.20
2018-11-28T07:10:20.438Z,16.97
2018-11-28T07:12:49.566Z,17.80
2018-11-28T07:15:20.204Z,17.27
2018-11-28T07:17:49.270Z,16.07
2018-11-28T07:20:18.408Z,16.93
2018-11-28T07:22:47.523Z,16.00
2018-11-28T07:25:17.602Z,16.13
2018-11-28T07:27:48.101Z,16.63
2018-11-28T07:30:20.258Z,17.40
2018-11-28T07:32:53.694Z,17.00
2018-11-28T07:35:22.829Z,16.27
2018-11-28T07:37:52.344Z,16.27
2018-11-28T07:40:23.616Z,15.47
2018-11-28T07:43:04.351Z,16.60
2018-11-28T07:45:33.454Z,15.40
2018-11-28T07:48:02.498Z,18.03
2018-11-28T07:50:31.559Z,16.80
2018-11-28T07:53:00.649Z,16.33
2018-11-28T07:55:29.722Z,17.70
2018-11-28T07:57:58.839Z,17.93
2018-11-28T08:00:27.950Z,17.93
2018-11-28T08:02:57.123Z,18.03
2018-11-28T08:05:26.246Z,18.30
2018-11-28T08:07:55.340Z,18.87
2018-11-28T08:10:25.210Z,18.10
2018-11-28T08:12:57.406Z,18.47
2018-11-28T08:15:26.991Z,18.23
2018-11-28T08:17:55.783Z,17.13
2018-11-28T08:20:24.880Z,16.30
2018-11-28T08:22:53.950Z,17.97
2018-11-28T08:25:27.763Z,18.00
2018-11-28T08:27:52.140Z,17.53
2018-11-28T08:30:23.404Z,17.97
2018-11-28T08:32:52.939Z,19.13
2018-11-28T08:35:22.011Z,18.83
2018-11-28T08:37:51.111Z,16.63
2018-11-28T08:40:21.835Z,17.23
2018-11-28T08:42:50.900Z,16.53
2018-11-28T08:45:20.990Z,17.80
2018-11-28T08:47:51.275Z,16.80
2018-11-28T08:50:26.319Z,17.23
2018-11-28T08:52:55.494Z,17.90
2018-11-28T08:55:24.636Z,17.30
2018-11-28T08:57:53.735Z,16.60
2018-11-28T09:00:23.782Z,16.20
2018-11-28T09:02:53.892Z,16.53
2018-11-28T09:05:23.307Z,16.20
2018-11-28T09:07:52.495Z,15.90
2018-11-28T09:10:21.576Z,16.20
2018-11-28T09:12:50.909Z,16.23
2018-11-28T09:15:25.217Z,14.93
2018-11-28T09:17:54.420Z,16.30
2018-11-28T09:20:23.519Z,17.53
2018-11-28T09:22:52.703Z,15.13
2018-11-28T09:25:21.937Z,15.90
2018-11-28T09:27:58.645Z,16.20
2018-11-28T09:30:27.743Z,15.00
2018-11-28T09:32:56.824Z,17.20
2018-11-28T09:35:25.927Z,16.73
2018-11-28T09:37:54.975Z,15.40
2018-11-28T09:40:26.445Z,16.10
2018-11-28T09:42:56.691Z,15.77
2018-11-28T09:45:25.843Z,16.87
2018-11-28T09:47:54.923Z,16.20
2018-11-28T09:50:25.966Z,16.10
2018-11-28T09:52:55.115Z,14.83
2018-11-28T09:55:27.091Z,16.70
2018-11-28T09:57:57.315Z,15.77
2018-11-28T10:00:28.293Z,15.90
2018-11-28T10:02:58.517Z,16.20
2018-11-28T10:05:29.124Z,15.00
2018-11-28T10:07:58.196Z,16.70
2018-11-28T10:10:27.326Z,16.00
2018-11-28T10:12:56.590Z,16.20
2018-11-28T10:15:27.635Z,17.30
2018-11-28T10:17:56.827Z,18.70
2018-11-28T10:20:25.924Z,17.57
2018-11-28T10:22:54.989Z,17.57
2018-11-28T10:25:25.174Z,18.33
2018-11-28T10:28:00.647Z,16.00
2018-11-28T10:30:30.876Z,16.10
2018-11-28T10:32:59.998Z,17.00
2018-11-28T10:35:29.430Z,15.13
2018-11-28T10:37:58.515Z,16.23
2018-11-28T10:40:28.081Z,15.80
2018-11-28T10:42:58.590Z,16.13
2018-11-28T10:45:28.544Z,16.37
2018-11-28T10:47:57.843Z,16.30
2018-11-28T10:50:27.467Z,17.20
2018-11-28T10:52:56.519Z,17.07
2018-11-28T10:55:26.474Z,16.80
2018-11-28T10:57:55.614Z,16.10
2018-11-28T11:00:32.102Z,16.83
2018-11-28T11:03:06.350Z,17.10
2018-11-28T11:05:40.845Z,16.40
2018-11-28T11:08:15.264Z,15.60
2018-11-28T11:10:49.668Z,16.07
2018-11-28T11:13:24.084Z,16.13
2018-11-28T11:15:55.433Z,16.57
2018-11-28T11:18:25.041Z,15.33
2018-11-28T11:20:54.230Z,15.03
2018-11-28T11:23:23.412Z,15.60
2018-11-28T11:25:53.083Z,15.20
2018-11-28T11:28:22.245Z,15.57
2018-11-28T11:30:51.384Z,16.13
2018-11-28T11:33:20.453Z,15.50
2018-11-28T11:35:49.868Z,15.50
2018-11-28T11:38:19.586Z,16.30
2018-11-28T11:40:49.068Z,14.67
2018-11-28T11:43:18.148Z,16.33
2018-11-28T11:45:47.275Z,15.60
2018-11-28T11:48:16.432Z,15.13
2018-11-28T11:50:45.535Z,15.20
2018-11-28T11:53:14.592Z,16.30
2018-11-28T11:55:43.673Z,15.90
2018-11-28T11:58:12.769Z,15.43
2018-11-28T12:00:43.268Z,15.47
2018-11-28T12:03:13.640Z,15.00
2018-11-28T12:05:45.217Z,16.20
2018-11-28T12:08:14.343Z,14.47
2018-11-28T12:10:43.445Z,14.97
2018-11-28T12:13:12.548Z,15.40
2018-11-28T12:15:41.633Z,16.03
2018-11-28T12:18:10.737Z,15.20
2018-11-28T12:20:45.461Z,15.30
2018-11-28T12:23:14.572Z,14.80
2018-11-28T12:25:43.651Z,16.00
2018-11-28T12:28:14.009Z,15.10
2018-11-28T12:30:41.896Z,15.10
2018-11-28T12:33:10.960Z,16.03
2018-11-28T12:35:40.145Z,15.43
2018-11-28T12:38:09.296Z,16.17
2018-11-28T12:40:38.461Z,15.07
2018-11-28T12:43:09.957Z,14.80
2018-11-28T12:45:42.667Z,14.17
2018-11-28T12:48:12.139Z,14.83
2018-11-28T12:50:41.280Z,15.00
2018-11-28T12:53:12.701Z,14.87
2018-11-28T12:55:43.282Z,14.63
2018-11-28T12:58:16.216Z,14.13
2018-11-28T13:00:45.703Z,16.03
2018-11-28T13:03:17.209Z,16.63
2018-11-28T13:05:46.545Z,15.90
2018-11-28T13:08:15.647Z,15.27
2018-11-28T13:10:44.767Z,14.40
2018-11-28T13:13:14.626Z,14.10
2018-11-28T13:15:43.681Z,15.40
2018-11-28T13:18:12.785Z,15.83
2018-11-28T13:20:43.173Z,15.10
2018-11-28T13:23:13.600Z,14.60
2018-11-28T13:25:43.536Z,14.40
2018-11-28T13:28:16.665Z,15.50
2018-11-28T13:30:45.772Z,14.57
2018-11-28T13:33:14.896Z,14.50
2018-11-28T13:38:58.776Z,15.13
2018-11-28T13:41:27.916Z,14.70
2018-11-28T13:43:57.016Z,15.77
2018-11-28T13:46:26.519Z,15.07
2018-11-28T13:48:55.794Z,14.80
2018-11-28T13:51:25.476Z,14.23
2018-11-28T13:53:54.966Z,14.47
2018-11-28T13:56:58.505Z,14.93
2018-11-28T13:58:53.255Z,15.47
2018-11-28T14:01:23.118Z,15.30
2018-11-28T14:03:52.250Z,14.40
2018-11-28T14:06:21.531Z,13.97
2018-11-28T14:08:51.017Z,14.40
2018-11-28T14:11:23.924Z,14.20
2018-11-28T14:13:53.265Z,14.83
2018-11-28T14:16:22.362Z,15.33
2018-11-28T14:18:51.490Z,14.23
2018-11-28T14:21:20.848Z,16.23
2018-11-28T14:23:50.294Z,15.30
2018-11-28T14:26:19.394Z,14.77
2018-11-28T14:28:48.626Z,15.70
2018-11-28T14:31:17.760Z,15.53
2018-11-28T14:33:55.167Z,15.90
2018-11-28T14:36:24.317Z,15.97
2018-11-28T14:38:53.604Z,16.87
2018-11-28T14:41:22.972Z,16.20
2018-11-28T14:43:52.056Z,16.53
2018-11-28T14:46:21.148Z,16.50
2018-11-28T14:48:50.480Z,16.00
2018-11-28T14:51:19.625Z,16.40
2018-11-28T14:53:48.775Z,16.50
2018-11-28T14:56:18.260Z,16.60
2018-11-28T14:58:53.034Z,17.00
2018-11-28T15:01:22.354Z,15.90
2018-11-28T15:03:51.597Z,16.00
2018-11-28T15:06:35.027Z,16.40
2018-11-28T15:09:11.534Z,17.70
2018-11-28T15:11:41.084Z,17.50
2018-11-28T15:14:18.289Z,17.20
2018-11-28T15:16:48.232Z,18.17
2018-11-28T15:19:24.226Z,18.60
2018-11-28T15:21:53.676Z,17.33
2018-11-28T15:24:22.962Z,17.40
2018-11-28T15:26:52.153Z,18.27
2018-11-28T15:29:22.800Z,17.70
2018-11-28T15:31:51.981Z,17.80
2018-11-28T15:34:21.102Z,17.77
2018-11-28T15:36:50.581Z,18.13
2018-11-28T15:39:19.872Z,16.93
2018-11-28T15:41:51.295Z,17.73
2018-11-28T15:44:20.508Z,17.03
2018-11-28T15:46:50.793Z,17.80
2018-11-28T15:49:20.090Z,18.60
2018-11-28T15:51:49.285Z,18.00
2018-11-28T15:54:19.082Z,16.80
2018-11-28T15:56:48.908Z,16.27
2018-11-28T15:59:18.040Z,17.37
2018-11-28T16:01:47.238Z,17.00
2018-11-28T16:04:16.581Z,16.87
2018-11-28T16:06:45.769Z,17.50
2018-11-28T16:09:20.715Z,17.60
2018-11-28T16:11:49.833Z,17.57
2018-11-28T16:14:27.178Z,16.77
2018-11-28T16:16:56.321Z,16.50
2018-11-28T16:19:43.899Z,16.97
2018-11-28T16:22:13.087Z,16.30
2018-11-28T16:24:43.337Z,16.50
2018-11-28T16:27:12.833Z,17.07
2018-11-28T16:29:52.310Z,17.73
2018-11-28T16:32:21.640Z,16.53
2018-11-28T16:34:50.890Z,16.63
2018-11-28T16:37:30.144Z,17.07
2018-11-28T16:39:59.293Z,17.40
2018-11-28T16:42:28.686Z,16.70
2018-11-28T16:44:58.012Z,17.27
2018-11-28T16:47:27.338Z,16.43
2018-11-28T16:49:56.483Z,16.10
2018-11-28T16:52:33.520Z,16.00
2018-11-28T16:55:02.670Z,16.70
2018-11-28T16:57:31.817Z,15.80
2018-11-28T17:00:01.133Z,15.20
2018-11-28T17:02:30.260Z,15.40
2018-11-28T17:04:59.410Z,15.73
2018-11-28T17:07:29.395Z,15.97
2018-11-28T17:09:58.842Z,16.87
2018-11-28T17:12:27.971Z,15.10
2018-11-28T17:15:03.575Z,15.03
2018-11-28T17:17:32.664Z,15.20
2018-11-28T17:20:02.415Z,16.40
2018-11-28T17:25:38.556Z,15.80
2018-11-28T17:28:07.716Z,16.87
2018-11-28T17:33:43.264Z,16.47
2018-11-28T17:36:12.843Z,16.40
2018-11-28T17:41:46.245Z,15.40
2018-11-28T17:47:31.754Z,19.30
2018-11-28T17:50:01.046Z,17.00
2018-11-28T17:58:34.426Z,15.80
2018-11-28T18:01:03.864Z,17.23
2018-11-28T18:03:45.509Z,15.67
2018-11-28T18:06:14.983Z,14.73
2018-11-28T18:14:35.129Z,16.53
2018-11-28T18:17:04.292Z,17.57
2018-11-28T18:19:37.667Z,16.40
2018-11-28T18:22:07.007Z,16.60
2018-11-28T18:24:36.466Z,16.37
2018-11-28T18:27:06.377Z,16.80
2018-11-28T18:29:35.615Z,15.43
2018-11-28T18:32:05.262Z,16.63
2018-11-28T18:34:35.222Z,16.80
2018-11-28T18:37:04.560Z,16.27
2018-11-28T18:39:33.931Z,17.03
2018-11-28T18:42:03.426Z,16.37
2018-11-28T18:44:32.734Z,16.93
2018-11-28T18:47:02.178Z,17.67
2018-11-28T18:49:31.621Z,17.20
2018-11-28T18:52:00.919Z,17.33
2018-11-28T18:54:40.825Z,16.37
2018-11-28T18:57:10.161Z,16.47
2018-11-28T18:59:39.535Z,16.10
2018-11-28T19:02:12.145Z,15.73
2018-11-28T19:04:41.457Z,15.60
2018-11-28T19:07:10.857Z,17.63
2018-11-28T19:09:45.487Z,16.70
2018-11-28T19:12:15.010Z,17.17
2018-11-28T19:14:44.833Z,16.83
2018-11-28T19:17:14.697Z,17.50
2018-11-28T19:19:54.289Z,18.70
2018-11-28T19:22:23.933Z,17.90
2018-11-28T19:24:53.844Z,18.50
2018-11-28T19:27:23.618Z,20.70
2018-11-28T19:29:53.425Z,20.73
2018-11-28T19:32:23.161Z,21.23
2018-11-28T19:34:52.750Z,22.77
2018-11-28T19:37:22.273Z,20.83
2018-11-28T19:39:51.405Z,19.67
2018-11-28T19:42:20.678Z,18.70
2018-11-28T19:44:50.397Z,18.33
2018-11-28T19:47:19.789Z,18.17
2018-11-28T19:49:49.562Z,19.60
2018-11-28T19:52:19.131Z,17.43
2018-11-28T19:54:48.451Z,16.33
2018-11-28T19:57:17.677Z,17.00
2018-11-28T19:59:47.099Z,16.30
2018-11-28T20:02:16.503Z,18.10
2018-11-28T20:04:45.877Z,17.13
2018-11-28T20:07:15.595Z,21.27
2018-11-28T20:09:44.827Z,18.07
2018-11-28T20:12:14.181Z,16.40
2018-11-28T20:14:43.779Z,18.60
2018-11-28T20:17:13.081Z,17.07
2018-11-28T20:19:42.411Z,17.90
2018-11-28T20:22:11.812Z,18.27
2018-11-28T20:24:41.157Z,18.90
2018-11-28T20:27:10.595Z,18.40
2018-11-28T20:29:40.113Z,19.00
2018-11-28T20:32:09.383Z,19.50
2018-11-28T20:34:38.731Z,23.90
2018-11-28T20:37:08.311Z,22.20
2018-11-28T20:39:37.766Z,17.30
2018-11-28T20:42:07.170Z,17.33
2018-11-28T20:44:36.759Z,17.30
2018-11-28T20:47:06.316Z,16.50
2018-11-28T20:49:35.625Z,16.17
2018-11-28T20:52:05.043Z,15.93
2018-11-28T20:54:34.408Z,17.23
2018-11-28T20:57:03.702Z,15.97
2018-11-28T20:59:38.379Z,16.30
2018-11-28T21:02:02.689Z,16.40
2018-11-28T21:04:32.037Z,16.67
2018-11-28T21:07:01.375Z,17.60
2018-11-28T21:09:30.653Z,16.20
2018-11-28T21:12:00.043Z,15.83
2018-11-28T21:14:29.569Z,17.17
2018-11-28T21:16:58.955Z,19.10
2018-11-28T21:19:28.357Z,19.10
2018-11-28T21:21:57.897Z,18.93
2018-11-28T21:24:27.268Z,19.37
2018-11-28T21:26:56.573Z,19.07
2018-11-28T21:29:25.978Z,18.87
2018-11-28T21:31:55.299Z,16.90
2018-11-28T21:34:24.561Z,17.00
2018-11-28T21:36:54.005Z,17.20
2018-11-28T21:39:23.505Z,17.70
2018-11-28T21:41:52.813Z,17.40
2018-11-28T21:44:23.026Z,17.53
2018-11-28T21:46:51.911Z,16.83
2018-11-28T21:49:21.209Z,17.90
2018-11-28T21:51:50.985Z,17.53
2018-11-28T21:54:22.639Z,17.50
2018-11-28T21:56:52.239Z,17.60
2018-11-28T21:59:22.150Z,17.70
2018-11-28T22:01:51.495Z,17.67
2018-11-28T22:04:21.341Z,17.00
2018-11-28T22:06:50.627Z,16.90
2018-11-28T22:09:19.912Z,17.27
2018-11-28T22:11:49.683Z,19.27
2018-11-28T22:14:18.927Z,18.60
2018-11-28T22:16:48.233Z,16.40
2018-11-28T22:19:17.692Z,18.03
2018-11-28T22:21:46.939Z,19.17
2018-11-28T22:24:16.203Z,17.97
2018-11-28T22:26:45.906Z,16.67
2018-11-28T22:29:15.207Z,16.40
2018-11-28T22:31:44.554Z,17.80
2018-11-28T22:34:15.388Z,17.23
2018-11-28T22:36:44.647Z,16.60
2018-11-28T22:39:13.953Z,18.23
2018-11-28T22:41:43.877Z,17.10
2018-11-28T22:44:13.107Z,16.90
2018-11-28T22:46:42.388Z,16.37
2018-11-28T22:49:11.841Z,17.60
2018-11-28T22:51:41.077Z,16.70
2018-11-28T22:54:10.519Z,17.50
2018-11-28T22:56:40.229Z,17.20
2018-11-28T22:59:09.515Z,17.67
2018-11-28T23:03:47.334Z,19.40
2018-11-28T23:06:16.550Z,17.90
2018-11-28T23:08:45.792Z,18.30
2018-11-28T23:11:18.821Z,19.03
2018-11-28T23:13:48.071Z,18.10
2018-11-28T23:16:17.348Z,18.27
2018-11-28T23:18:46.977Z,18.43
2018-11-28T23:21:17.479Z,19.10
2018-11-28T23:23:46.716Z,18.40
2018-11-28T23:26:16.215Z,17.63
2018-11-28T23:28:45.557Z,17.37
2018-11-28T23:31:14.895Z,17.53
2018-11-28T23:33:44.377Z,17.27
2018-11-28T23:36:13.716Z,17.73
2018-11-28T23:38:43.017Z,18.10
2018-11-28T23:41:12.725Z,17.10
2018-11-28T23:43:41.994Z,19.17
2018-11-28T23:46:15.095Z,18.63
2018-11-28T23:48:44.450Z,17.90
2018-11-28T23:51:13.765Z,19.07
2018-11-28T23:53:45.277Z,19.57
2018-11-28T23:56:14.505Z,17.73
2018-11-28T23:58:43.753Z,17.87
